Time;durP1;ratioP1;P1;durP2;ratioP2;P2;SDS_P1;SDS_P2;PMS_P1;PMS_P2;Temp;Humidity;BMP_temperature;BMP_pressure;BME280_temperature;BME280_humidity;BME280_pressure;Samples;Min_cycle;Max_cycle;Signal;HPM_P1;HPM_P2
2023/08/03 00:00:23;;;;;;;56.07;1.83;;;;;;;;;;5072167;28;20808;-69
2023/08/03 00:02:50;;;;;;;56.20;1.90;;;;;;;;;;5072237;28;20473;-68
2023/08/03 00:05:19;;;;;;;55.97;1.80;;;;;;;;;;5072358;28;20443;-69
2023/08/03 00:07:46;;;;;;;56.30;1.90;;;;;;;;;;5072282;28;20542;-70
2023/08/03 00:10:14;;;;;;;56.07;1.80;;;;;;;;;;5071837;28;20453;-70
2023/08/03 00:12:41;;;;;;;56.20;1.90;;;;;;;;;;5072088;28;20981;-69
2023/08/03 00:15:10;;;;;;;56.37;2.03;;;;;;;;;;5071647;28;20452;-69
2023/08/03 00:17:37;;;;;;;56.20;2.00;;;;;;;;;;5071601;28;20479;-68
2023/08/03 00:20:05;;;;;;;56.10;1.90;;;;;;;;;;5072106;28;20561;-70
2023/08/03 00:22:32;;;;;;;55.97;1.70;;;;;;;;;;5071846;28;20554;-70
2023/08/03 00:24:59;;;;;;;56.17;1.80;;;;;;;;;;5072488;28;20439;-69
2023/08/03 00:27:26;;;;;;;56.23;1.73;;;;;;;;;;5072045;28;20435;-70
2023/08/03 00:29:53;;;;;;;56.10;1.80;;;;;;;;;;5071811;28;20455;-70
2023/08/03 00:32:22;;;;;;;56.20;1.80;;;;;;;;;;5071694;28;20471;-70
2023/08/03 00:34:49;;;;;;;56.27;1.80;;;;;;;;;;5072338;28;20594;-70
2023/08/03 00:37:16;;;;;;;56.57;1.80;;;;;;;;;;5071374;28;20505;-70
2023/08/03 00:39:43;;;;;;;55.97;1.90;;;;;;;;;;5071845;28;20443;-68
2023/08/03 00:42:11;;;;;;;56.17;1.93;;;;;;;;;;5071395;28;20492;-70
2023/08/03 00:44:38;;;;;;;56.07;1.70;;;;;;;;;;5071508;28;20444;-69
2023/08/03 00:47:05;;;;;;;56.10;2.00;;;;;;;;;;5071501;28;20443;-69
2023/08/03 00:49:34;;;;;;;56.20;2.03;;;;;;;;;;5071568;28;20448;-69
2023/08/03 00:52:01;;;;;;;56.07;2.03;;;;;;;;;;5071100;28;20443;-69
2023/08/03 00:54:28;;;;;;;56.20;2.00;;;;;;;;;;5071358;28;20466;-69
2023/08/03 00:56:55;;;;;;;56.27;1.90;;;;;;;;;;5071219;28;20487;-70
2023/08/03 00:59:22;;;;;;;56.27;2.03;;;;;;;;;;5071480;28;20440;-69
2023/08/03 01:01:49;;;;;;;56.17;1.90;;;;;;;;;;5071040;28;20447;-70
2023/08/03 01:04:17;;;;;;;56.33;1.93;;;;;;;;;;5071338;28;20466;-69
2023/08/03 01:06:45;;;;;;;57.30;2.77;;;;;;;;;;5071354;28;20541;-70
2023/08/03 01:09:13;;;;;;;56.40;2.10;;;;;;;;;;5071454;28;20445;-70
2023/08/03 01:11:40;;;;;;;55.83;1.70;;;;;;;;;;5070887;28;20447;-70
2023/08/03 01:14:07;;;;;;;55.87;1.90;;;;;;;;;;5071185;28;20463;-69
2023/08/03 01:16:34;;;;;;;59.80;2.20;;;;;;;;;;5069472;28;20483;-69
2023/08/03 01:19:01;;;;;;;56.07;1.80;;;;;;;;;;5071398;28;20450;-69
2023/08/03 01:21:29;;;;;;;55.87;1.90;;;;;;;;;;5071086;28;20908;-70
2023/08/03 01:23:57;;;;;;;56.40;2.00;;;;;;;;;;5071339;28;20467;-69
2023/08/03 01:26:25;;;;;;;61.57;3.53;;;;;;;;;;5071130;28;20447;-70
2023/08/03 01:28:52;;;;;;;56.33;2.00;;;;;;;;;;5075361;28;20498;-70
2023/08/03 01:31:20;;;;;;;59.17;2.53;;;;;;;;;;5074825;28;20449;-69
2023/08/03 01:33:48;;;;;;;56.23;1.80;;;;;;;;;;5075153;28;20493;-69
2023/08/03 01:36:15;;;;;;;55.97;1.90;;;;;;;;;;5074780;28;20483;-69
2023/08/03 01:38:42;;;;;;;56.17;1.77;;;;;;;;;;5075068;28;20439;-69
2023/08/03 01:44:30;;;;;;;56.23;2.10;;;;;;;;;;5073286;28;20488;-70
2023/08/03 01:47:00;;;;;;;56.07;1.80;;;;;;;;;;5074906;28;20443;-69
2023/08/03 01:49:28;;;;;;;56.70;2.20;;;;;;;;;;5075130;28;20435;-69
2023/08/03 01:51:55;;;;;;;56.20;1.80;;;;;;;;;;5074561;28;20439;-69
2023/08/03 01:54:22;;;;;;;56.27;2.00;;;;;;;;;;5074306;28;20471;-69
2023/08/03 01:56:49;;;;;;;56.37;1.93;;;;;;;;;;5074600;28;20490;-69
2023/08/03 01:59:17;;;;;;;56.17;1.90;;;;;;;;;;5074917;28;20446;-69
2023/08/03 02:01:44;;;;;;;56.03;1.60;;;;;;;;;;5074347;28;20450;-69
2023/08/03 02:04:14;;;;;;;55.87;1.80;;;;;;;;;;5074803;28;20469;-70
2023/08/03 02:06:41;;;;;;;56.03;1.70;;;;;;;;;;5074526;28;20538;-69
2023/08/03 02:09:08;;;;;;;56.17;1.70;;;;;;;;;;5074395;28;20457;-70
2023/08/03 02:11:35;;;;;;;56.30;1.70;;;;;;;;;;5074400;28;20444;-70
2023/08/03 02:14:02;;;;;;;56.20;1.80;;;;;;;;;;5074397;28;20463;-68
2023/08/03 02:16:30;;;;;;;56.27;2.03;;;;;;;;;;5074080;28;20478;-69
2023/08/03 02:18:57;;;;;;;56.07;1.73;;;;;;;;;;5074449;28;20443;-69
2023/08/03 02:21:25;;;;;;;56.23;1.80;;;;;;;;;;5074031;28;20439;-69
2023/08/03 02:23:53;;;;;;;55.97;1.70;;;;;;;;;;5073990;28;20470;-70
2023/08/03 02:26:20;;;;;;;56.07;1.70;;;;;;;;;;5074246;28;20439;-70
2023/08/03 02:28:47;;;;;;;56.30;1.70;;;;;;;;;;5074071;28;20819;-70
2023/08/03 02:31:14;;;;;;;56.23;1.80;;;;;;;;;;5074041;28;20462;-69
2023/08/03 02:33:41;;;;;;;56.10;1.70;;;;;;;;;;5073962;28;20465;-70
2023/08/03 02:36:09;;;;;;;56.20;1.80;;;;;;;;;;5073718;28;20504;-70
2023/08/03 02:38:37;;;;;;;56.20;1.90;;;;;;;;;;5072629;28;21017;-70
2023/08/03 02:41:04;;;;;;;56.33;1.90;;;;;;;;;;5073763;28;20440;-69
2023/08/03 02:43:31;;;;;;;56.13;1.73;;;;;;;;;;5073875;28;20459;-69
2023/08/03 02:45:58;;;;;;;56.20;1.80;;;;;;;;;;5073689;28;20435;-70
2023/08/03 02:48:25;;;;;;;56.33;1.70;;;;;;;;;;5073799;28;20431;-68
2023/08/03 02:50:52;;;;;;;56.00;1.70;;;;;;;;;;5073313;28;20439;-69
2023/08/03 02:53:19;;;;;;;55.90;1.80;;;;;;;;;;5073686;28;20486;-69
2023/08/03 02:55:48;;;;;;;56.20;1.70;;;;;;;;;;5073683;28;20447;-70
2023/08/03 02:58:15;;;;;;;56.50;1.80;;;;;;;;;;5073704;28;20498;-70
2023/08/03 03:00:42;;;;;;;56.30;2.00;;;;;;;;;;5073444;28;20445;-69
2023/08/03 03:03:09;;;;;;;56.03;1.90;;;;;;;;;;5073393;28;20467;-69
2023/08/03 03:05:36;;;;;;;56.17;1.70;;;;;;;;;;5073688;28;20446;-69
2023/08/03 03:08:03;;;;;;;56.07;1.67;;;;;;;;;;5073237;28;20935;-70
2023/08/03 03:10:30;;;;;;;57.17;3.10;;;;;;;;;;5073146;28;20443;-69
2023/08/03 03:12:59;;;;;;;56.23;1.77;;;;;;;;;;5073087;28;20995;-69
2023/08/03 03:15:26;;;;;;;56.27;1.90;;;;;;;;;;5073076;28;20443;-70
2023/08/03 03:17:53;;;;;;;56.20;1.90;;;;;;;;;;5073072;28;20483;-69
2023/08/03 03:20:20;;;;;;;56.20;1.90;;;;;;;;;;5073021;28;20447;-70
2023/08/03 03:22:47;;;;;;;60.90;2.27;;;;;;;;;;5073193;28;20465;-69
2023/08/03 03:25:14;;;;;;;56.40;1.93;;;;;;;;;;5073264;28;20622;-70
2023/08/03 03:27:41;;;;;;;56.17;1.80;;;;;;;;;;5073027;28;20447;-70
2023/08/03 03:30:10;;;;;;;56.30;1.70;;;;;;;;;;5072656;28;20779;-69
2023/08/03 03:32:37;;;;;;;56.50;1.80;;;;;;;;;;5072650;28;20464;-70
2023/08/03 03:35:04;;;;;;;55.97;1.73;;;;;;;;;;5073131;28;20450;-70
2023/08/03 03:37:31;;;;;;;56.27;1.90;;;;;;;;;;5072995;28;20487;-70
2023/08/03 03:39:58;;;;;;;56.10;2.13;;;;;;;;;;5072797;28;20451;-69
2023/08/03 03:42:25;;;;;;;56.47;1.80;;;;;;;;;;5072523;28;20459;-70
2023/08/03 03:44:52;;;;;;;56.17;1.80;;;;;;;;;;5072527;28;20450;-70
2023/08/03 03:47:21;;;;;;;56.10;1.80;;;;;;;;;;5072744;28;20443;-69
2023/08/03 03:49:48;;;;;;;56.10;1.73;;;;;;;;;;5072520;28;20543;-69
2023/08/03 03:52:15;;;;;;;56.27;1.90;;;;;;;;;;5072381;28;20443;-68
2023/08/03 03:54:42;;;;;;;56.07;1.80;;;;;;;;;;5072498;28;20463;-70
2023/08/03 03:57:09;;;;;;;56.23;2.20;;;;;;;;;;5072313;28;20483;-70
2023/08/03 03:59:36;;;;;;;56.07;1.90;;;;;;;;;;5072578;28;20446;-69
2023/08/03 04:02:03;;;;;;;56.60;2.50;;;;;;;;;;5071845;28;20443;-68
2023/08/03 04:04:32;;;;;;;56.50;2.10;;;;;;;;;;5072286;28;20451;-69
2023/08/03 04:06:59;;;;;;;56.20;1.70;;;;;;;;;;5072622;28;20450;-70
2023/08/03 04:09:26;;;;;;;56.07;1.80;;;;;;;;;;5072375;28;20447;-69
2023/08/03 04:11:53;;;;;;;56.50;2.10;;;;;;;;;;5071589;28;20800;-69
2023/08/03 04:14:20;;;;;;;56.40;1.90;;;;;;;;;;5072190;28;20471;-70
2023/08/03 04:16:47;;;;;;;56.27;1.77;;;;;;;;;;5072037;28;20450;-69
2023/08/03 04:19:14;;;;;;;56.00;1.70;;;;;;;;;;5072028;28;20447;-69
2023/08/03 04:21:42;;;;;;;62.23;2.53;;;;;;;;;;5071629;28;20446;-70
2023/08/03 04:24:09;;;;;;;56.10;1.70;;;;;;;;;;5071730;28;20464;-69
2023/08/03 04:26:37;;;;;;;56.03;1.70;;;;;;;;;;5071611;28;20910;-69
2023/08/03 04:29:04;;;;;;;59.90;2.00;;;;;;;;;;5071874;28;20439;-69
2023/08/03 04:31:31;;;;;;;56.07;1.90;;;;;;;;;;5071527;28;20436;-70
2023/08/03 04:33:58;;;;;;;56.13;1.70;;;;;;;;;;5071788;28;20459;-70
2023/08/03 04:36:25;;;;;;;56.10;1.70;;;;;;;;;;5071874;28;20439;-69
2023/08/03 04:38:53;;;;;;;56.40;2.07;;;;;;;;;;5071570;28;20485;-70
2023/08/03 04:41:21;;;;;;;56.20;1.90;;;;;;;;;;5071156;28;20455;-70
2023/08/03 04:43:48;;;;;;;55.93;1.93;;;;;;;;;;5071657;28;20882;-69
2023/08/03 04:46:15;;;;;;;56.20;1.90;;;;;;;;;;5071604;28;20447;-69
2023/08/03 04:48:42;;;;;;;56.30;2.00;;;;;;;;;;5071370;28;20440;-70
2023/08/03 04:51:09;;;;;;;56.10;1.70;;;;;;;;;;5071288;28;20935;-69
2023/08/03 04:53:36;;;;;;;56.37;1.97;;;;;;;;;;5070916;28;20550;-70
2023/08/03 04:56:06;;;;;;;56.37;1.70;;;;;;;;;;5071500;28;20443;-69
2023/08/03 04:58:33;;;;;;;56.00;1.70;;;;;;;;;;5071468;28;20483;-69
2023/08/03 05:01:00;;;;;;;56.20;1.80;;;;;;;;;;5070813;28;20451;-70
2023/08/03 05:03:27;;;;;;;56.07;1.80;;;;;;;;;;5071082;28;20812;-70
2023/08/03 05:05:54;;;;;;;56.23;2.07;;;;;;;;;;5071308;28;20443;-70
2023/08/03 05:08:22;;;;;;;56.37;1.90;;;;;;;;;;5071196;28;20458;-69
2023/08/03 05:10:49;;;;;;;56.20;1.80;;;;;;;;;;5070879;28;20452;-69
2023/08/03 05:13:18;;;;;;;56.17;1.70;;;;;;;;;;5071437;28;20470;-70
2023/08/03 05:15:45;;;;;;;55.77;1.80;;;;;;;;;;5071117;28;20444;-69
2023/08/03 05:18:12;;;;;;;56.43;2.67;;;;;;;;;;5071309;28;20483;-69
2023/08/03 05:20:40;;;;;;;58.07;3.03;;;;;;;;;;5070856;28;20748;-69
2023/08/03 05:23:07;;;;;;;56.30;2.00;;;;;;;;;;5071322;28;20532;-69
2023/08/03 05:25:34;;;;;;;56.30;1.90;;;;;;;;;;5071161;28;20950;-70
2023/08/03 05:28:02;;;;;;;56.23;2.10;;;;;;;;;;5071235;28;20435;-70
2023/08/03 05:30:30;;;;;;;56.27;2.13;;;;;;;;;;5070922;28;20447;-69
2023/08/03 05:32:57;;;;;;;56.20;1.80;;;;;;;;;;5070922;28;20459;-70
2023/08/03 05:35:24;;;;;;;56.27;1.80;;;;;;;;;;5070910;28;20450;-69
2023/08/03 05:37:53;;;;;;;56.17;1.80;;;;;;;;;;5071365;28;20847;-69
2023/08/03 05:40:21;;;;;;;56.30;1.90;;;;;;;;;;5070863;28;20451;-69
2023/08/03 05:42:48;;;;;;;56.23;1.90;;;;;;;;;;5071134;28;20835;-70
2023/08/03 05:45:16;;;;;;;56.13;2.00;;;;;;;;;;5071003;28;20916;-69
2023/08/03 05:47:44;;;;;;;56.07;1.87;;;;;;;;;;5070883;28;20441;-68
2023/08/03 05:50:14;;;;;;;56.33;2.00;;;;;;;;;;5070971;28;20443;-69
2023/08/03 05:52:41;;;;;;;56.10;1.90;;;;;;;;;;5070968;28;20464;-70
2023/08/03 05:55:10;;;;;;;56.03;1.90;;;;;;;;;;5070845;28;20826;-69
2023/08/03 05:57:38;;;;;;;56.10;1.73;;;;;;;;;;5070657;28;20481;-69
2023/08/03 06:00:05;;;;;;;56.30;2.07;;;;;;;;;;5070652;28;20439;-68
2023/08/03 06:02:33;;;;;;;56.27;1.90;;;;;;;;;;5070499;28;20463;-69
2023/08/03 06:05:01;;;;;;;56.20;1.93;;;;;;;;;;5071039;28;20493;-69
2023/08/03 06:07:28;;;;;;;56.10;1.80;;;;;;;;;;5070949;28;20931;-70
2023/08/03 06:09:55;;;;;;;55.87;1.90;;;;;;;;;;5070811;28;20451;-69
2023/08/03 06:12:22;;;;;;;57.23;2.43;;;;;;;;;;5070595;28;20463;-69
2023/08/03 06:14:50;;;;;;;56.80;2.00;;;;;;;;;;5074347;28;20443;-69
2023/08/03 06:17:22;;;;;;;56.07;1.80;;;;;;;;;;5074045;28;20978;-69
2023/08/03 06:19:49;;;;;;;56.17;1.80;;;;;;;;;;5074270;28;20450;-68
2023/08/03 06:22:20;;;;;;;56.10;1.70;;;;;;;;;;5073989;28;20455;-69
2023/08/03 06:24:48;;;;;;;56.40;1.80;;;;;;;;;;5074367;28;20439;-69
2023/08/03 06:27:15;;;;;;;56.20;1.80;;;;;;;;;;5073953;28;20956;-70
2023/08/03 06:29:42;;;;;;;56.10;1.90;;;;;;;;;;5074068;28;20452;-69
2023/08/03 06:32:14;;;;;;;56.10;1.90;;;;;;;;;;5073838;28;20826;-69
2023/08/03 06:34:41;;;;;;;55.97;1.80;;;;;;;;;;5074134;28;20443;-69
2023/08/03 06:37:09;;;;;;;56.23;1.80;;;;;;;;;;5074051;28;20539;-69
2023/08/03 06:39:38;;;;;;;56.10;1.70;;;;;;;;;;5073458;28;21033;-70
2023/08/03 06:42:05;;;;;;;56.07;1.70;;;;;;;;;;5073511;28;20443;-69
2023/08/03 06:44:33;;;;;;;56.17;1.90;;;;;;;;;;5073984;28;20552;-69
2023/08/03 06:47:00;;;;;;;56.37;2.00;;;;;;;;;;5073876;28;20443;-70
2023/08/03 06:49:27;;;;;;;56.03;1.73;;;;;;;;;;5073691;28;20952;-69
2023/08/03 06:51:54;;;;;;;56.07;1.80;;;;;;;;;;5073439;28;20814;-70
2023/08/03 06:54:21;;;;;;;56.50;2.00;;;;;;;;;;5073311;28;20486;-70
2023/08/03 06:56:50;;;;;;;56.50;2.03;;;;;;;;;;5073486;28;20466;-69
2023/08/03 06:59:21;;;;;;;56.07;1.80;;;;;;;;;;5073514;28;20494;-70
2023/08/03 07:01:49;;;;;;;56.07;1.73;;;;;;;;;;5073316;28;20452;-69
2023/08/03 07:04:16;;;;;;;56.00;1.63;;;;;;;;;;5073383;28;20471;-69
2023/08/03 07:06:43;;;;;;;56.20;1.90;;;;;;;;;;5073537;28;20443;-69
2023/08/03 07:09:10;;;;;;;56.10;1.80;;;;;;;;;;5073209;28;20440;-70
2023/08/03 07:11:37;;;;;;;55.83;1.80;;;;;;;;;;5073055;28;20449;-69
2023/08/03 07:14:07;;;;;;;56.03;2.10;;;;;;;;;;5073466;28;20459;-69
2023/08/03 07:16:34;;;;;;;56.07;1.90;;;;;;;;;;5073278;28;20490;-70
2023/08/03 07:19:01;;;;;;;56.03;1.70;;;;;;;;;;5073224;28;20483;-70
2023/08/03 07:21:28;;;;;;;56.20;1.90;;;;;;;;;;5073275;28;20439;-70
2023/08/03 07:23:55;;;;;;;56.00;1.67;;;;;;;;;;5073008;28;20463;-68
2023/08/03 07:26:23;;;;;;;56.10;2.10;;;;;;;;;;5072637;28;20986;-70
2023/08/03 07:28:50;;;;;;;56.50;1.90;;;;;;;;;;5073209;28;20443;-70
2023/08/03 07:31:18;;;;;;;56.40;2.27;;;;;;;;;;5072854;28;20791;-69
2023/08/03 07:33:45;;;;;;;56.23;1.70;;;;;;;;;;5073125;28;20808;-68
2023/08/03 07:36:17;;;;;;;56.07;1.87;;;;;;;;;;5072601;28;20447;-69
2023/08/03 07:38:44;;;;;;;55.57;1.80;;;;;;;;;;5072839;28;20540;-69
2023/08/03 07:41:11;;;;;;;56.07;1.70;;;;;;;;;;5072698;28;20458;-69
2023/08/03 07:43:38;;;;;;;56.20;1.67;;;;;;;;;;5072611;28;20830;-70
2023/08/03 07:46:05;;;;;;;55.97;1.90;;;;;;;;;;5072623;28;20454;-69
2023/08/03 07:48:34;;;;;;;55.87;1.80;;;;;;;;;;5072840;28;20533;-69
2023/08/03 07:51:01;;;;;;;55.93;1.70;;;;;;;;;;5072249;28;20819;-70
2023/08/03 07:53:28;;;;;;;56.03;1.70;;;;;;;;;;5072737;28;20746;-70
2023/08/03 07:55:55;;;;;;;56.03;1.70;;;;;;;;;;5072532;28;20446;-70
2023/08/03 07:58:22;;;;;;;56.10;2.00;;;;;;;;;;5072509;28;20649;-70
2023/08/03 08:00:49;;;;;;;55.60;1.80;;;;;;;;;;5072192;28;20443;-69
2023/08/03 08:03:16;;;;;;;56.17;1.73;;;;;;;;;;5072217;28;20478;-70
2023/08/03 08:05:44;;;;;;;55.67;1.70;;;;;;;;;;5072549;28;20459;-70
2023/08/03 08:08:11;;;;;;;56.07;2.00;;;;;;;;;;5072556;28;20445;-70
2023/08/03 08:10:39;;;;;;;55.67;1.80;;;;;;;;;;5071921;28;20455;-69
2023/08/03 08:13:06;;;;;;;55.77;1.70;;;;;;;;;;5072242;28;20983;-70
2023/08/03 08:15:36;;;;;;;56.03;1.63;;;;;;;;;;5072212;28;20800;-70
2023/08/03 08:18:03;;;;;;;55.73;1.60;;;;;;;;;;5072119;28;20448;-69
2023/08/03 08:20:31;;;;;;;55.80;1.60;;;;;;;;;;5071686;28;20451;-70
2023/08/03 08:22:59;;;;;;;55.87;1.73;;;;;;;;;;5072006;28;20824;-70
2023/08/03 08:25:26;;;;;;;55.97;1.83;;;;;;;;;;5071903;28;20439;-69
2023/08/03 08:27:53;;;;;;;55.93;1.83;;;;;;;;;;5071947;28;20542;-69
2023/08/03 08:30:20;;;;;;;56.10;1.80;;;;;;;;;;5071622;28;20973;-70
2023/08/03 08:32:47;;;;;;;56.00;1.80;;;;;;;;;;5072223;28;20826;-70
2023/08/03 08:35:14;;;;;;;55.73;2.00;;;;;;;;;;5072140;28;20435;-70
2023/08/03 08:37:41;;;;;;;56.27;1.70;;;;;;;;;;5071072;28;20446;-69
2023/08/03 08:40:12;;;;;;;55.77;1.73;;;;;;;;;;5071293;28;20573;-70
2023/08/03 08:42:39;;;;;;;55.97;1.70;;;;;;;;;;5071898;28;20463;-69
2023/08/03 08:45:06;;;;;;;56.00;1.80;;;;;;;;;;5071536;28;20444;-69
2023/08/03 08:47:33;;;;;;;55.63;1.70;;;;;;;;;;5071711;28;20453;-69
2023/08/03 08:50:01;;;;;;;56.27;1.70;;;;;;;;;;5071645;28;20442;-69
2023/08/03 08:52:29;;;;;;;56.07;1.80;;;;;;;;;;5071498;28;20883;-69
2023/08/03 08:57:49;;;;;;;55.77;1.80;;;;;;;;;;5088948;27;20578;-69
2023/08/03 09:00:17;;;;;;;55.97;1.90;;;;;;;;;;5088813;28;20450;-70
2023/08/03 09:02:44;;;;;;;55.80;1.60;;;;;;;;;;5088785;28;20527;-69
2023/08/03 09:05:11;;;;;;;55.97;1.77;;;;;;;;;;5088702;28;20443;-70
2023/08/03 09:07:38;;;;;;;55.87;1.90;;;;;;;;;;5088578;28;20818;-69
2023/08/03 09:10:06;;;;;;;56.40;2.17;;;;;;;;;;5088630;28;20453;-70
2023/08/03 09:12:33;;;;;;;56.00;1.67;;;;;;;;;;5088647;28;20465;-69
2023/08/03 09:15:01;;;;;;;56.07;1.80;;;;;;;;;;5088695;28;20438;-70
2023/08/03 09:17:29;;;;;;;56.20;1.90;;;;;;;;;;5088470;28;20839;-69
2023/08/03 09:19:56;;;;;;;55.90;1.80;;;;;;;;;;5088613;28;20465;-69
2023/08/03 09:22:24;;;;;;;55.60;1.73;;;;;;;;;;5087979;28;20474;-69
2023/08/03 09:25:01;;;;;;;55.30;1.60;;;;;;;;;;5088670;28;20443;-69
2023/08/03 09:27:28;;;;;;;55.63;1.80;;;;;;;;;;5088364;28;20440;-70
2023/08/03 09:29:59;;;;;;;57.00;2.50;;;;;;;;;;5088361;28;20442;-69
2023/08/03 09:32:34;;;;;;;56.10;1.90;;;;;;;;;;5088046;28;20462;-70
2023/08/03 09:35:01;;;;;;;56.00;1.83;;;;;;;;;;5088063;28;20604;-69
2023/08/03 09:37:35;;;;;;;55.97;1.60;;;;;;;;;;5088329;28;20488;-70
2023/08/03 09:40:04;;;;;;;55.87;1.70;;;;;;;;;;5088179;28;20442;-69
2023/08/03 09:42:32;;;;;;;55.80;1.70;;;;;;;;;;5088136;28;20509;-70
2023/08/03 09:45:01;;;;;;;55.93;1.83;;;;;;;;;;5088179;28;20447;-69
2023/08/03 09:47:28;;;;;;;55.93;1.70;;;;;;;;;;5087836;28;20439;-69
2023/08/03 09:49:57;;;;;;;56.00;1.80;;;;;;;;;;5088029;28;20439;-69
2023/08/03 09:52:26;;;;;;;55.87;1.70;;;;;;;;;;5087321;28;20463;-69
2023/08/03 09:54:56;;;;;;;56.17;2.07;;;;;;;;;;5087793;28;20972;-68
2023/08/03 09:57:24;;;;;;;55.97;1.70;;;;;;;;;;5087540;28;20561;-70
2023/08/03 09:59:54;;;;;;;56.10;1.73;;;;;;;;;;5087665;28;20469;-70
2023/08/03 10:02:24;;;;;;;56.20;1.70;;;;;;;;;;5087653;28;20462;-70
2023/08/03 10:04:53;;;;;;;56.87;2.47;;;;;;;;;;5088193;28;20530;-70
2023/08/03 10:07:23;;;;;;;56.00;1.70;;;;;;;;;;5083982;28;20439;-68
2023/08/03 10:09:52;;;;;;;56.10;1.70;;;;;;;;;;5073911;28;20451;-68
2023/08/03 10:12:21;;;;;;;56.10;2.07;;;;;;;;;;5073778;28;20443;-69
2023/08/03 10:14:51;;;;;;;55.73;1.60;;;;;;;;;;5072884;28;20444;-69
2023/08/03 10:17:19;;;;;;;55.73;1.80;;;;;;;;;;5073561;28;20533;-69
2023/08/03 10:19:47;;;;;;;55.70;1.57;;;;;;;;;;5072626;28;20443;-69
2023/08/03 10:22:14;;;;;;;55.53;1.80;;;;;;;;;;5071986;28;20440;-68
2023/08/03 10:25:03;;;;;;;55.43;1.73;;;;;;;;;;5073150;28;20454;-70
2023/08/03 10:27:30;;;;;;;56.10;1.70;;;;;;;;;;5073324;28;20448;-69
2023/08/03 10:29:57;;;;;;;56.30;1.80;;;;;;;;;;5073219;28;20826;-69
2023/08/03 10:32:25;;;;;;;55.97;1.90;;;;;;;;;;5072693;28;20516;-69
2023/08/03 10:34:56;;;;;;;55.33;1.50;;;;;;;;;;5072405;28;20462;-70
2023/08/03 10:37:23;;;;;;;56.20;1.70;;;;;;;;;;5073126;28;20991;-69
2023/08/03 10:39:53;;;;;;;55.87;1.60;;;;;;;;;;5071920;28;20947;-70
2023/08/03 10:42:32;;;;;;;55.87;1.67;;;;;;;;;;5073172;28;20468;-70
2023/08/03 10:45:18;;;;;;;55.77;1.80;;;;;;;;;;5072960;28;20538;-69
2023/08/03 10:47:45;;;;;;;55.87;1.60;;;;;;;;;;5073338;28;20604;-69
2023/08/03 10:50:12;;;;;;;56.00;1.70;;;;;;;;;;5072049;28;20458;-70
2023/08/03 10:52:39;;;;;;;55.80;1.60;;;;;;;;;;5071846;28;20471;-69
2023/08/03 10:55:24;;;;;;;55.63;1.70;;;;;;;;;;5072299;28;20440;-70
2023/08/03 10:57:51;;;;;;;55.70;1.60;;;;;;;;;;5071801;28;21041;-69
2023/08/03 11:00:19;;;;;;;55.90;1.80;;;;;;;;;;5071690;28;20450;-70
2023/08/03 11:02:46;;;;;;;56.10;1.90;;;;;;;;;;5072143;28;20490;-69
2023/08/03 11:05:13;;;;;;;55.67;1.70;;;;;;;;;;5071987;28;20443;-70
2023/08/03 11:07:41;;;;;;;55.73;1.70;;;;;;;;;;5072224;28;20970;-70
2023/08/03 11:10:10;;;;;;;56.00;1.70;;;;;;;;;;5071201;28;20454;-70
2023/08/03 11:12:39;;;;;;;56.00;1.67;;;;;;;;;;5072217;28;20993;-70
2023/08/03 11:15:07;;;;;;;56.30;1.90;;;;;;;;;;5071546;28;20969;-69
2023/08/03 11:17:35;;;;;;;55.57;1.57;;;;;;;;;;5072720;28;20902;-69
2023/08/03 11:20:03;;;;;;;57.13;1.90;;;;;;;;;;5070793;28;20445;-69
2023/08/03 11:22:31;;;;;;;56.10;1.80;;;;;;;;;;5072449;28;20815;-69
2023/08/03 11:24:59;;;;;;;55.70;1.70;;;;;;;;;;5072601;28;20451;-70
2023/08/03 11:27:26;;;;;;;55.83;1.70;;;;;;;;;;5072495;28;20817;-68
2023/08/03 11:29:56;;;;;;;56.20;1.80;;;;;;;;;;5072806;28;20446;-70
2023/08/03 11:32:23;;;;;;;55.90;1.50;;;;;;;;;;5072348;28;20467;-70
2023/08/03 11:34:51;;;;;;;56.10;1.90;;;;;;;;;;5072655;28;20444;-69
2023/08/03 11:37:18;;;;;;;55.70;1.70;;;;;;;;;;5072170;28;20509;-70
2023/08/03 11:39:46;;;;;;;56.10;1.57;;;;;;;;;;5072325;28;20447;-71
2023/08/03 11:42:13;;;;;;;55.27;1.60;;;;;;;;;;5071781;28;20444;-69
2023/08/03 11:44:40;;;;;;;55.70;1.60;;;;;;;;;;5072319;28;20455;-70
2023/08/03 11:47:09;;;;;;;55.97;1.50;;;;;;;;;;5072126;28;20443;-70
2023/08/03 11:49:36;;;;;;;56.50;2.20;;;;;;;;;;5072074;28;20948;-70
2023/08/03 11:52:04;;;;;;;55.80;1.70;;;;;;;;;;5071670;28;20830;-71
2023/08/03 11:54:32;;;;;;;55.77;1.60;;;;;;;;;;5071913;28;20470;-70
2023/08/03 11:58:07;;;;;;;55.43;1.40;;;;;;;;;;5071743;28;20486;-71
2023/08/03 11:59:48;;;;;;;56.07;1.70;;;;;;;;;;5071618;28;20505;-70
2023/08/03 12:02:16;;;;;;;56.10;1.80;;;;;;;;;;5071388;28;20455;-71
2023/08/03 12:04:43;;;;;;;55.87;1.60;;;;;;;;;;5071840;28;20447;-70
2023/08/03 12:07:11;;;;;;;55.87;1.50;;;;;;;;;;5071730;28;20547;-70
2023/08/03 12:09:39;;;;;;;55.87;1.57;;;;;;;;;;5071985;28;20453;-70
2023/08/03 12:12:07;;;;;;;55.60;1.50;;;;;;;;;;5071560;28;20446;-71
2023/08/03 12:14:34;;;;;;;55.97;1.50;;;;;;;;;;5071676;28;20443;-71
2023/08/03 12:17:01;;;;;;;55.57;1.40;;;;;;;;;;5071604;28;20489;-70
2023/08/03 12:19:32;;;;;;;55.80;1.60;;;;;;;;;;5071466;28;20443;-70
2023/08/03 12:22:00;;;;;;;55.87;1.50;;;;;;;;;;5071575;28;20450;-71
2023/08/03 12:24:27;;;;;;;57.27;2.27;;;;;;;;;;5071706;28;20448;-70
2023/08/03 12:26:54;;;;;;;55.90;1.50;;;;;;;;;;5071502;28;20489;-70
2023/08/03 12:29:22;;;;;;;55.90;1.50;;;;;;;;;;5071635;28;20936;-71
2023/08/03 12:31:49;;;;;;;55.80;1.43;;;;;;;;;;5071771;28;20447;-70
2023/08/03 12:34:16;;;;;;;59.70;2.30;;;;;;;;;;5072249;28;20467;-70
2023/08/03 12:36:45;;;;;;;55.70;1.50;;;;;;;;;;5071813;28;20447;-70
2023/08/03 12:39:12;;;;;;;55.67;1.50;;;;;;;;;;5071863;28;20454;-71
2023/08/03 12:41:39;;;;;;;55.77;1.50;;;;;;;;;;5071567;28;20445;-70
2023/08/03 12:44:06;;;;;;;56.10;1.70;;;;;;;;;;5071251;28;20473;-70
2023/08/03 12:46:33;;;;;;;55.87;1.50;;;;;;;;;;5070936;28;20457;-70
2023/08/03 12:49:00;;;;;;;55.87;1.70;;;;;;;;;;5070930;28;20841;-70
2023/08/03 12:51:28;;;;;;;55.80;1.60;;;;;;;;;;5071003;28;20547;-70
2023/08/03 12:53:56;;;;;;;55.77;1.50;;;;;;;;;;5071139;28;20469;-70
2023/08/03 12:56:23;;;;;;;55.47;1.40;;;;;;;;;;5070866;28;20563;-69
2023/08/03 12:58:50;;;;;;;55.90;1.60;;;;;;;;;;5070999;28;20487;-70
2023/08/03 13:01:18;;;;;;;55.37;1.60;;;;;;;;;;5070694;28;20443;-70
2023/08/03 13:03:45;;;;;;;55.80;1.70;;;;;;;;;;5071267;28;20473;-69
2023/08/03 13:06:12;;;;;;;55.63;1.70;;;;;;;;;;5070996;28;20443;-69
2023/08/03 13:08:39;;;;;;;55.70;1.70;;;;;;;;;;5071105;28;20439;-70
2023/08/03 13:11:08;;;;;;;55.73;1.60;;;;;;;;;;5071155;28;20448;-71
2023/08/03 13:13:35;;;;;;;55.77;1.50;;;;;;;;;;5071126;28;20463;-71
2023/08/03 13:16:05;;;;;;;55.83;1.40;;;;;;;;;;5071489;28;20449;-71
2023/08/03 13:18:32;;;;;;;55.77;1.43;;;;;;;;;;5071272;28;20486;-71
2023/08/03 13:21:00;;;;;;;55.87;1.40;;;;;;;;;;5070964;28;20449;-70
2023/08/03 13:23:27;;;;;;;55.60;1.50;;;;;;;;;;5071087;28;20475;-71
2023/08/03 13:25:54;;;;;;;55.87;1.53;;;;;;;;;;5071017;28;20470;-70
2023/08/03 13:28:22;;;;;;;55.43;1.50;;;;;;;;;;5070988;28;20443;-70
2023/08/03 13:30:49;;;;;;;55.97;1.53;;;;;;;;;;5070907;28;20454;-71
2023/08/03 13:33:17;;;;;;;55.73;1.70;;;;;;;;;;5071213;28;20467;-71
2023/08/03 13:35:44;;;;;;;56.10;1.57;;;;;;;;;;5070971;28;20447;-70
2023/08/03 13:38:11;;;;;;;55.90;1.60;;;;;;;;;;5070954;28;20483;-70
2023/08/03 13:40:38;;;;;;;55.57;1.70;;;;;;;;;;5070822;28;21120;-71
2023/08/03 13:43:05;;;;;;;59.23;1.70;;;;;;;;;;5072028;28;20470;-71
2023/08/03 13:45:33;;;;;;;55.73;1.50;;;;;;;;;;5075146;28;20626;-71
2023/08/03 13:48:00;;;;;;;55.67;1.53;;;;;;;;;;5074698;28;20463;-70
2023/08/03 13:50:27;;;;;;;55.47;1.50;;;;;;;;;;5074392;28;20447;-71
2023/08/03 13:52:54;;;;;;;55.37;1.50;;;;;;;;;;5074515;28;20469;-70
2023/08/03 13:55:22;;;;;;;55.70;1.40;;;;;;;;;;5074220;28;20931;-71
2023/08/03 13:57:49;;;;;;;55.67;1.50;;;;;;;;;;5074644;28;20573;-70
2023/08/03 14:00:16;;;;;;;55.77;2.07;;;;;;;;;;5074324;28;20928;-70
2023/08/03 14:02:44;;;;;;;55.80;1.50;;;;;;;;;;5074400;28;20467;-70
2023/08/03 14:05:12;;;;;;;56.00;2.03;;;;;;;;;;5074604;28;20447;-70
2023/08/03 14:07:39;;;;;;;55.67;1.50;;;;;;;;;;5074322;28;20459;-70
2023/08/03 14:10:08;;;;;;;55.63;1.60;;;;;;;;;;5074016;28;20447;-71
2023/08/03 14:12:35;;;;;;;55.47;1.50;;;;;;;;;;5074350;28;20620;-70
2023/08/03 14:15:02;;;;;;;55.77;1.50;;;;;;;;;;5074411;28;20439;-70
2023/08/03 14:17:29;;;;;;;55.53;1.43;;;;;;;;;;5074009;28;20496;-70
2023/08/03 14:19:58;;;;;;;55.57;1.70;;;;;;;;;;5074061;28;20450;-71
2023/08/03 14:22:25;;;;;;;55.53;1.60;;;;;;;;;;5073735;28;20467;-70
2023/08/03 14:24:52;;;;;;;56.00;1.50;;;;;;;;;;5073896;28;20940;-71
2023/08/03 14:27:19;;;;;;;55.70;1.50;;;;;;;;;;5073970;28;20454;-71
2023/08/03 14:29:46;;;;;;;55.67;1.50;;;;;;;;;;5074105;28;20443;-71
2023/08/03 14:32:13;;;;;;;55.53;1.50;;;;;;;;;;5073514;28;20440;-71
2023/08/03 14:34:40;;;;;;;55.90;1.50;;;;;;;;;;5073742;28;20444;-71
2023/08/03 14:37:09;;;;;;;55.70;1.50;;;;;;;;;;5073458;28;20973;-71
2023/08/03 14:39:36;;;;;;;55.70;1.50;;;;;;;;;;5073791;28;20443;-69